»·PEaware :: N1127P KSAN-KSDM

N1127P :: KSAN-KSDM

FLIGHT INFORMATION

Flight Status: Arrived
Operator: Privately registered:
United States
More flights under this callsign
Pilot: Marcelo S. (23897)
Aircraft: CIRRUS SR-22
(SR22)
More flights by this aircraft type
Origin: KSAN San Diego Intl-Lindbergh
United States
Destination: KSDM Brown Mun
United States
More flights between these airports :: More routes between these airports
Route: V66 HAILE
File this flight plan on PilotEdge
Remarks:
Altitude:
(Current/Filed)
3,000ft
Speed:
(Current/Filed)
160kts
Departed: 09-Apr-19 10:27 AM
Arrived: 09-Apr-19 10:57 AM
Distance/Time
Traveled:
14nm/0:29
Distance/Time
To Go:
Arrived

Flight Plot

Page will automatically refresh every two minutes.


Map Options




Map Legend


Flown Route
Filed Route
Departure Airport
Arrival Airport
Navaid (VOR, NDB)
Fix

Horizontal Profiles

Position Reports

Time Latitude Longitude Heading Altitude Ground
Speed
09-Apr-19 10:00 32.732571 -117.177096 16 19ft 0kts
09-Apr-19 10:01 32.732571 -117.177096 16 19ft 0kts
09-Apr-19 10:02 32.732571 -117.177096 16 19ft 0kts
09-Apr-19 10:03 32.732571 -117.177096 16 19ft 0kts
09-Apr-19 10:04 32.732571 -117.177096 16 19ft 0kts
09-Apr-19 10:05 32.732571 -117.177096 16 19ft 0kts
09-Apr-19 10:06 32.732571 -117.177096 16 19ft 0kts
09-Apr-19 10:10 32.734837 -117.203984 195 19ft 0kts
09-Apr-19 10:11 32.734837 -117.203984 195 19ft 0kts
09-Apr-19 10:12 32.734837 -117.203984 195 19ft 0kts
09-Apr-19 10:13 32.734837 -117.203984 195 19ft 0kts
09-Apr-19 10:14 32.734837 -117.203984 195 19ft 0kts
09-Apr-19 10:15 32.734837 -117.203984 195 19ft 0kts
09-Apr-19 10:16 32.734837 -117.203984 195 19ft 0kts
09-Apr-19 10:17 32.734837 -117.203984 195 19ft 0kts
09-Apr-19 10:18 32.734837 -117.203984 195 19ft 0kts
09-Apr-19 10:19 32.734837 -117.203984 195 19ft 0kts
09-Apr-19 10:20 32.734837 -117.203984 195 19ft 0kts
09-Apr-19 10:21 32.734837 -117.203984 195 19ft 0kts
09-Apr-19 10:22 32.734837 -117.203984 195 19ft 0kts
09-Apr-19 10:23 32.734999 -117.203888 11 19ft 0kts
09-Apr-19 10:24 32.735297 -117.203814 13 19ft 14kts
09-Apr-19 10:25 32.733862 -117.195178 104 19ft 40kts
09-Apr-19 10:26 32.730505 -117.180718 104 19ft 47kts
09-Apr-19 10:27 32.729648 -117.176541 82 19ft 0kts
09-Apr-19 10:28 32.729648 -117.176541 82 19ft 0kts
09-Apr-19 10:29 32.732832 -117.186895 284 120ft 99kts
09-Apr-19 10:30 32.749425 -117.215666 320 1373ft 116kts
09-Apr-19 10:31 32.778110 -117.239999 321 2112ft 147kts
09-Apr-19 10:32 32.812464 -117.272705 321 2122ft 152kts
09-Apr-19 10:33 32.846121 -117.298672 9 2862ft 147kts
09-Apr-19 10:34 32.850617 -117.254320 102 3701ft 156kts
09-Apr-19 10:35 32.839094 -117.201045 102 4009ft 177kts
09-Apr-19 10:36 32.826705 -117.143383 102 4007ft 180kts
09-Apr-19 10:37 32.811810 -117.090300 144 3982ft 169kts
09-Apr-19 10:38 32.764879 -117.068650 162 4005ft 187kts
09-Apr-19 10:39 32.715323 -117.048542 162 3996ft 188kts
09-Apr-19 10:40 32.665733 -117.028206 162 3991ft 187kts
09-Apr-19 10:41 32.616991 -117.007612 163 3993ft 183kts
09-Apr-19 10:42 32.569253 -116.990199 194 3977ft 175kts
09-Apr-19 10:43 32.565469 -117.037279 290 4002ft 170kts
09-Apr-19 10:44 32.581189 -117.090732 291 3994ft 171kts
09-Apr-19 10:45 32.597228 -117.144707 291 4001ft 173kts
09-Apr-19 10:46 32.613105 -117.198112 291 4001ft 170kts
09-Apr-19 10:47 32.623755 -117.252166 261 4014ft 173kts
09-Apr-19 10:48 32.615700 -117.310165 263 3636ft 181kts
09-Apr-19 10:49 32.644250 -117.335139 41 3253ft 183kts
09-Apr-19 10:50 32.637018 -117.277058 109 3006ft 188kts
09-Apr-19 10:51 32.619189 -117.219647 109 2932ft 187kts
09-Apr-19 10:52 32.600579 -117.160715 110 2541ft 192kts
09-Apr-19 10:53 32.582799 -117.102656 100 2396ft 182kts
09-Apr-19 10:54 32.578225 -117.042985 97 1738ft 181kts
09-Apr-19 10:55 32.574084 -116.996586 95 595ft 95kts
09-Apr-19 10:56 32.572348 -116.984112 183 530ft 0kts
09-Apr-19 10:57 32.570349 -116.984741 231 530ft 0kts

Navigation Log

Ident Type
Flight plan parsing failed, navigation log unavailable